Addison, Pennsylvania
Current Conditions -  °F | °C
As of 2:00 PM on Sunday 23 Nov 2014 (Local Time) from K2G4 Reporting Station
Clear Clear  
Wind Chill: 55°   Ceiling: Unl
Heat Index: 55°   Visibility: 10mi
Dew Point: 32°   Wind: 14mph
Humidity: 41%   Direction: 140°SE
Pressure: 29.99"   Gusts: 20mph
Location:  39.75°N, 79.34°W
Report Text: K2G4 231900Z AUTO 14012G17KT 10SM CLR 13/00 A2999 RMK AO1
Loading
Personal Weather Stations






























Interactive Weather Map New forecast layout! Learn more

10-Day Weather Forecast

Advertisements
Track Severe Weather on mobile